createdAt,value
2023-01-12T00:00:02.794Z,6.0
2023-01-12T00:10:01.495Z,6.0
2023-01-12T00:20:01.270Z,5.9
2023-01-12T00:30:01.350Z,5.8
2023-01-12T00:40:02.728Z,5.8
2023-01-12T00:50:01.936Z,6.0
2023-01-12T01:00:01.477Z,5.9
2023-01-12T01:10:02.956Z,5.9
2023-01-12T01:20:01.031Z,5.9
2023-01-12T01:30:01.573Z,5.9
2023-01-12T01:40:00.991Z,6.0
2023-01-12T01:50:01.289Z,6.1
2023-01-12T02:00:01.029Z,6.1
2023-01-12T02:10:02.122Z,6.2
2023-01-12T02:20:03.502Z,6.3
2023-01-12T02:40:01.038Z,6.0
2023-01-12T03:00:01.191Z,6.1
2023-01-12T03:10:02.141Z,6.2
2023-01-12T03:20:01.073Z,6.3
2023-01-12T03:30:00.991Z,6.3
2023-01-12T03:40:01.091Z,6.4
2023-01-12T03:50:01.063Z,6.4
2023-01-12T04:00:01.080Z,6.5
2023-01-12T04:10:00.514Z,6.5
2023-01-12T04:20:01.927Z,6.6
2023-01-12T04:30:02.115Z,6.6
2023-01-12T04:40:01.869Z,6.7
2023-01-12T04:50:01.053Z,7.0
2023-01-12T05:10:01.230Z,7.2
2023-01-12T05:20:02.050Z,7.4
2023-01-12T05:30:02.326Z,7.4
2023-01-12T05:40:01.922Z,7.5
2023-01-12T05:50:01.468Z,7.6
2023-01-12T06:00:01.010Z,7.5
2023-01-12T06:10:01.222Z,7.5
2023-01-12T06:20:01.002Z,7.6
2023-01-12T06:30:01.057Z,7.7
2023-01-12T06:40:01.277Z,7.9
2023-01-12T06:50:00.524Z,7.6
2023-01-12T07:00:01.110Z,7.6
2023-01-12T07:10:01.331Z,7.6
2023-01-12T07:20:01.019Z,7.7
2023-01-12T07:30:01.529Z,7.8
2023-01-12T07:40:01.259Z,7.8
2023-01-12T07:50:02.369Z,7.8
2023-01-12T08:00:01.023Z,7.9
2023-01-12T08:10:02.129Z,8.0
2023-01-12T08:20:02.366Z,8.1
2023-01-12T08:30:01.093Z,8.3
2023-01-12T08:40:01.941Z,8.4
2023-01-12T08:50:01.231Z,8.7
2023-01-12T09:00:03.959Z,8.6
2023-01-12T09:10:01.001Z,8.8
2023-01-12T09:20:01.137Z,8.9
2023-01-12T09:30:01.071Z,9.0
2023-01-12T09:40:01.293Z,9.1
2023-01-12T09:50:08.933Z,9.3
2023-01-12T10:00:02.315Z,9.4
2023-01-12T10:10:00.999Z,9.6
2023-01-12T10:20:01.382Z,9.9
2023-01-12T10:30:02.100Z,9.8
2023-01-12T10:40:02.402Z,9.9
2023-01-12T10:50:01.328Z,9.7
2023-01-12T11:00:01.880Z,9.6
2023-01-12T11:10:02.112Z,9.4
2023-01-12T11:20:01.494Z,8.9
2023-01-12T11:30:02.022Z,8.9
2023-01-12T11:40:00.511Z,8.8
2023-01-12T11:50:01.374Z,8.6
2023-01-12T12:00:01.483Z,8.8
2023-01-12T12:10:01.346Z,9.0
2023-01-12T12:20:01.119Z,9.4
2023-01-12T12:30:01.062Z,9.5
2023-01-12T12:40:00.528Z,9.7
2023-01-12T12:50:02.304Z,9.7
2023-01-12T13:00:01.339Z,9.8
2023-01-12T13:10:01.080Z,9.8
2023-01-12T13:20:06.355Z,9.8
2023-01-12T13:30:01.290Z,9.8
2023-01-12T13:40:01.548Z,9.9
2023-01-12T13:50:02.700Z,10.0
2023-01-12T14:00:01.120Z,9.9
2023-01-12T14:10:01.137Z,10.0
2023-01-12T14:20:01.212Z,9.9
2023-01-12T14:30:02.622Z,10.1
2023-01-12T14:40:02.558Z,10.0
2023-01-12T14:50:01.058Z,10.2
2023-01-12T15:00:01.821Z,10.1
2023-01-12T15:10:01.162Z,10.2
2023-01-12T15:20:03.626Z,10.2
2023-01-12T15:30:01.103Z,10.2
2023-01-12T15:40:01.052Z,10.2
2023-01-12T15:50:01.928Z,10.3
2023-01-12T16:00:03.150Z,10.3
2023-01-12T16:10:02.254Z,10.4
2023-01-12T16:20:01.044Z,10.4
2023-01-12T16:30:01.667Z,10.4
2023-01-12T16:40:01.234Z,10.5
2023-01-12T16:50:00.582Z,10.6
2023-01-12T17:00:01.116Z,10.6
2023-01-12T17:10:01.073Z,10.6
2023-01-12T17:20:01.452Z,10.7
2023-01-12T17:30:02.152Z,10.8
2023-01-12T17:40:01.053Z,10.7
2023-01-12T17:50:01.016Z,10.7
2023-01-12T18:00:02.951Z,10.8
2023-01-12T18:10:01.265Z,10.8
2023-01-12T18:20:01.318Z,10.9
2023-01-12T18:30:01.084Z,10.9
2023-01-12T18:40:02.205Z,10.9
2023-01-12T18:50:01.943Z,11.1
2023-01-12T19:00:02.976Z,11.1
2023-01-12T19:10:02.094Z,11.0
2023-01-12T19:20:02.396Z,11.1
2023-01-12T19:30:01.419Z,11.1
2023-01-12T19:40:01.540Z,11.1
2023-01-12T19:50:01.046Z,10.8
2023-01-12T20:00:01.081Z,10.3
2023-01-12T20:10:01.111Z,9.9
2023-01-12T20:20:01.246Z,9.6
2023-01-12T20:30:01.550Z,9.4
2023-01-12T20:40:01.075Z,9.4
2023-01-12T20:50:03.300Z,9.3
2023-01-12T21:00:02.012Z,9.3
2023-01-12T21:10:02.169Z,9.2
2023-01-12T21:20:03.390Z,9.2
2023-01-12T21:30:03.202Z,9.1
2023-01-12T21:40:03.475Z,9.1
2023-01-12T21:50:02.959Z,9.1
2023-01-12T22:00:01.119Z,9.1
2023-01-12T22:10:01.770Z,9.1
2023-01-12T22:20:02.435Z,9.1
2023-01-12T22:30:01.551Z,9.2
2023-01-12T22:40:01.511Z,9.1
2023-01-12T22:50:00.522Z,9.2
2023-01-12T23:00:02.432Z,9.2
2023-01-12T23:10:01.062Z,9.1
2023-01-12T23:20:00.554Z,9.1
2023-01-12T23:30:01.382Z,9.0
2023-01-12T23:40:01.567Z,9.1
2023-01-12T23:50:02.008Z,9.2
